sensor_id;sensor_type;location;lat;lon;timestamp;P1;durP1;ratioP1;P2;durP2;ratioP2
1164;SDS011;571;50.930;6.926;2023-03-21T03:46:29;5.43;;;4.40;;
1164;SDS011;571;50.930;6.926;2023-03-21T03:48:58;8.93;;;5.10;;
1164;SDS011;571;50.930;6.926;2023-03-21T03:51:31;10.23;;;5.07;;
1164;SDS011;571;50.930;6.926;2023-03-21T03:54:01;7.80;;;4.13;;
1164;SDS011;571;50.930;6.926;2023-03-21T03:56:32;8.57;;;4.77;;
1164;SDS011;571;50.930;6.926;2023-03-21T03:59:00;8.77;;;4.63;;
1164;SDS011;571;50.930;6.926;2023-03-21T04:01:30;15.73;;;5.70;;
1164;SDS011;571;50.930;6.926;2023-03-21T04:03:57;11.07;;;5.10;;
1164;SDS011;571;50.930;6.926;2023-03-21T04:06:24;9.77;;;5.07;;
1164;SDS011;571;50.930;6.926;2023-03-21T04:08:53;9.03;;;4.73;;
1164;SDS011;571;50.930;6.926;2023-03-21T04:11:20;10.50;;;5.00;;
1164;SDS011;571;50.930;6.926;2023-03-21T04:13:47;9.07;;;5.40;;
1164;SDS011;571;50.930;6.926;2023-03-21T04:16:14;9.53;;;5.17;;
1164;SDS011;571;50.930;6.926;2023-03-21T04:18:42;10.40;;;4.20;;
1164;SDS011;571;50.930;6.926;2023-03-21T04:21:09;10.70;;;5.17;;
1164;SDS011;571;50.930;6.926;2023-03-21T04:23:37;8.97;;;5.20;;
1164;SDS011;571;50.930;6.926;2023-03-21T04:26:05;9.47;;;5.83;;
1164;SDS011;571;50.930;6.926;2023-03-21T04:28:32;7.63;;;4.70;;
1164;SDS011;571;50.930;6.926;2023-03-21T04:31:00;8.50;;;4.57;;
1164;SDS011;571;50.930;6.926;2023-03-21T04:33:27;11.50;;;4.87;;
1164;SDS011;571;50.930;6.926;2023-03-21T04:35:55;10.17;;;5.07;;
1164;SDS011;571;50.930;6.926;2023-03-21T04:38:23;6.47;;;4.70;;
1164;SDS011;571;50.930;6.926;2023-03-21T04:40:54;10.97;;;4.73;;
1164;SDS011;571;50.930;6.926;2023-03-21T04:43:21;8.23;;;4.97;;
1164;SDS011;571;50.930;6.926;2023-03-21T04:45:48;7.20;;;4.83;;
1164;SDS011;571;50.930;6.926;2023-03-21T04:48:15;9.10;;;5.00;;
1164;SDS011;571;50.930;6.926;2023-03-21T04:50:43;7.40;;;4.60;;
1164;SDS011;571;50.930;6.926;2023-03-21T04:53:11;13.33;;;4.60;;
1164;SDS011;571;50.930;6.926;2023-03-21T04:55:38;11.30;;;4.50;;
1164;SDS011;571;50.930;6.926;2023-03-21T04:58:04;9.70;;;4.90;;
1164;SDS011;571;50.930;6.926;2023-03-21T05:00:31;10.03;;;4.73;;
1164;SDS011;571;50.930;6.926;2023-03-21T05:03:01;11.87;;;5.30;;
1164;SDS011;571;50.930;6.926;2023-03-21T05:05:29;4.97;;;4.10;;
1164;SDS011;571;50.930;6.926;2023-03-21T05:07:56;7.63;;;4.50;;
1164;SDS011;571;50.930;6.926;2023-03-21T05:10:25;8.30;;;4.50;;
1164;SDS011;571;50.930;6.926;2023-03-21T05:12:52;14.27;;;5.60;;
1164;SDS011;571;50.930;6.926;2023-03-21T05:15:19;10.63;;;4.73;;
1164;SDS011;571;50.930;6.926;2023-03-21T05:17:45;8.63;;;5.20;;
1164;SDS011;571;50.930;6.926;2023-03-21T05:20:13;8.47;;;5.30;;
1164;SDS011;571;50.930;6.926;2023-03-21T05:22:41;5.90;;;5.20;;
1164;SDS011;571;50.930;6.926;2023-03-21T05:25:10;9.57;;;5.00;;
1164;SDS011;571;50.930;6.926;2023-03-21T05:27:39;6.80;;;4.83;;
1164;SDS011;571;50.930;6.926;2023-03-21T05:30:10;5.77;;;4.90;;
1164;SDS011;571;50.930;6.926;2023-03-21T05:32:38;9.67;;;5.17;;
1164;SDS011;571;50.930;6.926;2023-03-21T05:35:05;9.83;;;4.80;;
1164;SDS011;571;50.930;6.926;2023-03-21T05:37:32;10.50;;;5.47;;
1164;SDS011;571;50.930;6.926;2023-03-21T05:39:59;8.27;;;4.70;;
1164;SDS011;571;50.930;6.926;2023-03-21T05:42:31;7.50;;;4.60;;
1164;SDS011;571;50.930;6.926;2023-03-21T05:44:59;11.70;;;5.73;;
1164;SDS011;571;50.930;6.926;2023-03-21T05:47:26;12.93;;;6.40;;
1164;SDS011;571;50.930;6.926;2023-03-21T05:49:52;11.87;;;5.00;;
1164;SDS011;571;50.930;6.926;2023-03-21T05:52:19;9.73;;;6.00;;
1164;SDS011;571;50.930;6.926;2023-03-21T05:54:46;8.70;;;5.70;;
1164;SDS011;571;50.930;6.926;2023-03-21T05:57:13;8.27;;;5.23;;
1164;SDS011;571;50.930;6.926;2023-03-21T05:59:40;6.10;;;4.37;;
1164;SDS011;571;50.930;6.926;2023-03-21T06:02:08;14.27;;;5.70;;
1164;SDS011;571;50.930;6.926;2023-03-21T06:04:35;11.10;;;5.60;;
1164;SDS011;571;50.930;6.926;2023-03-21T06:07:01;7.77;;;4.97;;
1164;SDS011;571;50.930;6.926;2023-03-21T06:09:28;11.17;;;5.30;;
1164;SDS011;571;50.930;6.926;2023-03-21T06:11:55;20.03;;;6.07;;
1164;SDS011;571;50.930;6.926;2023-03-21T06:14:24;12.60;;;6.00;;
1164;SDS011;571;50.930;6.926;2023-03-21T06:16:51;6.80;;;5.57;;
1164;SDS011;571;50.930;6.926;2023-03-21T06:19:20;9.60;;;5.37;;
1164;SDS011;571;50.930;6.926;2023-03-21T06:21:47;8.10;;;4.93;;
1164;SDS011;571;50.930;6.926;2023-03-21T06:24:14;10.40;;;5.30;;
1164;SDS011;571;50.930;6.926;2023-03-21T06:26:41;11.43;;;5.40;;
1164;SDS011;571;50.930;6.926;2023-03-21T06:29:08;9.40;;;5.87;;
1164;SDS011;571;50.930;6.926;2023-03-21T06:31:35;7.77;;;5.70;;
1164;SDS011;571;50.930;6.926;2023-03-21T06:34:02;13.93;;;5.90;;
1164;SDS011;571;50.930;6.926;2023-03-21T06:36:30;11.53;;;6.20;;
1164;SDS011;571;50.930;6.926;2023-03-21T06:38:57;10.57;;;6.20;;
1164;SDS011;571;50.930;6.926;2023-03-21T06:41:24;10.60;;;6.10;;
1164;SDS011;571;50.930;6.926;2023-03-21T06:43:50;9.30;;;6.10;;
1164;SDS011;571;50.930;6.926;2023-03-21T06:46:17;10.00;;;6.80;;
1164;SDS011;571;50.930;6.926;2023-03-21T06:48:44;7.97;;;5.30;;
1164;SDS011;571;50.930;6.926;2023-03-21T06:51:11;11.50;;;6.00;;
1164;SDS011;571;50.930;6.926;2023-03-21T06:53:40;13.53;;;6.10;;
1164;SDS011;571;50.930;6.926;2023-03-21T06:56:07;11.60;;;5.73;;
1164;SDS011;571;50.930;6.926;2023-03-21T06:58:34;7.77;;;5.70;;
1164;SDS011;571;50.930;6.926;2023-03-21T07:01:02;9.63;;;6.60;;
1164;SDS011;571;50.930;6.926;2023-03-21T07:03:29;9.63;;;6.13;;
1164;SDS011;571;50.930;6.926;2023-03-21T07:05:56;10.30;;;6.10;;
1164;SDS011;571;50.930;6.926;2023-03-21T07:08:23;12.30;;;5.90;;
1164;SDS011;571;50.930;6.926;2023-03-21T07:10:53;11.73;;;6.33;;
1164;SDS011;571;50.930;6.926;2023-03-21T07:13:21;10.50;;;7.07;;
1164;SDS011;571;50.930;6.926;2023-03-21T07:15:48;8.87;;;6.00;;
1164;SDS011;571;50.930;6.926;2023-03-21T07:18:15;8.90;;;6.53;;
1164;SDS011;571;50.930;6.926;2023-03-21T07:20:44;13.03;;;7.73;;
1164;SDS011;571;50.930;6.926;2023-03-21T07:23:13;11.70;;;6.70;;
1164;SDS011;571;50.930;6.926;2023-03-21T07:25:39;7.87;;;6.53;;
1164;SDS011;571;50.930;6.926;2023-03-21T07:28:07;9.50;;;6.87;;
1164;SDS011;571;50.930;6.926;2023-03-21T07:30:34;12.80;;;7.10;;
1164;SDS011;571;50.930;6.926;2023-03-21T07:33:01;11.30;;;7.03;;
1164;SDS011;571;50.930;6.926;2023-03-21T07:35:28;8.30;;;6.80;;
1164;SDS011;571;50.930;6.926;2023-03-21T07:37:55;11.27;;;7.20;;
1164;SDS011;571;50.930;6.926;2023-03-21T07:40:22;12.70;;;7.40;;
1164;SDS011;571;50.930;6.926;2023-03-21T07:42:48;14.40;;;7.57;;
1164;SDS011;571;50.930;6.926;2023-03-21T07:45:16;10.13;;;6.77;;
1164;SDS011;571;50.930;6.926;2023-03-21T07:47:45;12.67;;;6.83;;
1164;SDS011;571;50.930;6.926;2023-03-21T07:50:13;13.63;;;6.87;;
1164;SDS011;571;50.930;6.926;2023-03-21T07:52:39;9.20;;;8.00;;
1164;SDS011;571;50.930;6.926;2023-03-21T07:55:07;14.37;;;7.20;;
1164;SDS011;571;50.930;6.926;2023-03-21T07:57:35;13.47;;;6.80;;
1164;SDS011;571;50.930;6.926;2023-03-21T08:00:03;8.13;;;6.77;;
1164;SDS011;571;50.930;6.926;2023-03-21T08:02:32;12.23;;;6.73;;
1164;SDS011;571;50.930;6.926;2023-03-21T08:04:59;14.83;;;7.73;;
1164;SDS011;571;50.930;6.926;2023-03-21T08:07:27;19.70;;;7.77;;
1164;SDS011;571;50.930;6.926;2023-03-21T08:09:53;11.10;;;9.23;;
1164;SDS011;571;50.930;6.926;2023-03-21T08:12:20;14.53;;;7.80;;
1164;SDS011;571;50.930;6.926;2023-03-21T08:14:47;11.27;;;7.70;;
1164;SDS011;571;50.930;6.926;2023-03-21T08:17:13;16.97;;;7.43;;
1164;SDS011;571;50.930;6.926;2023-03-21T08:19:41;11.40;;;7.40;;
1164;SDS011;571;50.930;6.926;2023-03-21T08:22:09;10.90;;;7.30;;
1164;SDS011;571;50.930;6.926;2023-03-21T08:24:35;11.07;;;6.80;;
1164;SDS011;571;50.930;6.926;2023-03-21T08:27:02;10.83;;;6.57;;
1164;SDS011;571;50.930;6.926;2023-03-21T08:29:29;12.87;;;7.60;;
1164;SDS011;571;50.930;6.926;2023-03-21T08:31:56;11.40;;;7.20;;
1164;SDS011;571;50.930;6.926;2023-03-21T08:34:23;9.13;;;6.60;;
1164;SDS011;571;50.930;6.926;2023-03-21T08:36:52;10.40;;;7.67;;
1164;SDS011;571;50.930;6.926;2023-03-21T08:39:19;9.80;;;6.80;;
1164;SDS011;571;50.930;6.926;2023-03-21T08:41:46;13.77;;;8.80;;
1164;SDS011;571;50.930;6.926;2023-03-21T08:44:13;18.67;;;8.70;;
1164;SDS011;571;50.930;6.926;2023-03-21T08:46:40;14.03;;;8.93;;
1164;SDS011;571;50.930;6.926;2023-03-21T08:49:07;16.60;;;8.90;;
1164;SDS011;571;50.930;6.926;2023-03-21T08:51:34;10.20;;;7.90;;
1164;SDS011;571;50.930;6.926;2023-03-21T08:54:03;11.47;;;8.93;;
1164;SDS011;571;50.930;6.926;2023-03-21T08:56:30;9.07;;;7.00;;
1164;SDS011;571;50.930;6.926;2023-03-21T08:58:57;8.70;;;7.13;;
1164;SDS011;571;50.930;6.926;2023-03-21T09:01:26;13.10;;;7.00;;
1164;SDS011;571;50.930;6.926;2023-03-21T09:03:53;8.07;;;6.53;;
1164;SDS011;571;50.930;6.926;2023-03-21T09:06:23;7.63;;;5.70;;
1164;SDS011;571;50.930;6.926;2023-03-21T09:08:51;10.77;;;7.10;;
1164;SDS011;571;50.930;6.926;2023-03-21T09:11:19;6.97;;;5.77;;
1164;SDS011;571;50.930;6.926;2023-03-21T09:13:45;11.37;;;6.20;;
1164;SDS011;571;50.930;6.926;2023-03-21T09:16:14;9.20;;;5.83;;
1164;SDS011;571;50.930;6.926;2023-03-21T09:18:44;12.20;;;7.00;;
1164;SDS011;571;50.930;6.926;2023-03-21T09:21:13;10.10;;;7.40;;
1164;SDS011;571;50.930;6.926;2023-03-21T09:23:42;8.93;;;5.77;;
1164;SDS011;571;50.930;6.926;2023-03-21T09:26:10;11.50;;;6.70;;
1164;SDS011;571;50.930;6.926;2023-03-21T09:28:38;9.30;;;5.90;;
1164;SDS011;571;50.930;6.926;2023-03-21T09:31:06;15.03;;;7.00;;
1164;SDS011;571;50.930;6.926;2023-03-21T09:33:35;12.17;;;7.03;;
1164;SDS011;571;50.930;6.926;2023-03-21T09:36:02;10.13;;;5.63;;
1164;SDS011;571;50.930;6.926;2023-03-21T09:38:33;10.10;;;7.60;;
1164;SDS011;571;50.930;6.926;2023-03-21T09:41:03;9.17;;;5.77;;
1164;SDS011;571;50.930;6.926;2023-03-21T09:43:43;9.10;;;6.77;;
1164;SDS011;571;50.930;6.926;2023-03-21T09:46:20;9.77;;;6.80;;
1164;SDS011;571;50.930;6.926;2023-03-21T09:48:54;10.23;;;6.53;;
1164;SDS011;571;50.930;6.926;2023-03-21T09:51:25;11.60;;;6.63;;
1164;SDS011;571;50.930;6.926;2023-03-21T09:53:55;12.70;;;7.30;;
1164;SDS011;571;50.930;6.926;2023-03-21T09:56:24;12.70;;;8.27;;
1164;SDS011;571;50.930;6.926;2023-03-21T09:58:53;12.33;;;6.40;;
1164;SDS011;571;50.930;6.926;2023-03-21T10:01:24;8.70;;;7.67;;
1164;SDS011;571;50.930;6.926;2023-03-21T10:03:54;11.77;;;7.40;;
1164;SDS011;571;50.930;6.926;2023-03-21T10:06:22;13.40;;;7.23;;
1164;SDS011;571;50.930;6.926;2023-03-21T10:08:53;12.80;;;7.10;;
1164;SDS011;571;50.930;6.926;2023-03-21T10:11:23;11.07;;;8.60;;
1164;SDS011;571;50.930;6.926;2023-03-21T10:13:53;11.63;;;7.27;;
1164;SDS011;571;50.930;6.926;2023-03-21T10:16:24;9.80;;;6.00;;
1164;SDS011;571;50.930;6.926;2023-03-21T10:18:54;10.50;;;6.90;;
1164;SDS011;571;50.930;6.926;2023-03-21T10:21:21;11.07;;;6.67;;
1164;SDS011;571;50.930;6.926;2023-03-21T10:23:53;10.90;;;6.30;;
1164;SDS011;571;50.930;6.926;2023-03-21T10:26:23;17.30;;;5.70;;
1164;SDS011;571;50.930;6.926;2023-03-21T10:28:54;10.20;;;5.60;;
1164;SDS011;571;50.930;6.926;2023-03-21T10:31:24;11.50;;;5.67;;
1164;SDS011;571;50.930;6.926;2023-03-21T10:33:55;5.73;;;4.77;;
1164;SDS011;571;50.930;6.926;2023-03-21T10:36:26;12.60;;;5.87;;
1164;SDS011;571;50.930;6.926;2023-03-21T10:38:56;8.20;;;5.63;;
1164;SDS011;571;50.930;6.926;2023-03-21T10:41:25;8.30;;;6.30;;
1164;SDS011;571;50.930;6.926;2023-03-21T10:44:04;7.20;;;6.20;;
1164;SDS011;571;50.930;6.926;2023-03-21T10:46:32;8.60;;;5.87;;
1164;SDS011;571;50.930;6.926;2023-03-21T10:49:00;13.03;;;6.00;;
1164;SDS011;571;50.930;6.926;2023-03-21T10:51:27;11.67;;;7.00;;
1164;SDS011;571;50.930;6.926;2023-03-21T10:53:57;11.47;;;7.00;;
1164;SDS011;571;50.930;6.926;2023-03-21T10:56:26;10.33;;;6.30;;
1164;SDS011;571;50.930;6.926;2023-03-21T10:58:55;8.33;;;6.30;;
1164;SDS011;571;50.930;6.926;2023-03-21T11:01:26;8.33;;;5.80;;
1164;SDS011;571;50.930;6.926;2023-03-21T11:03:56;8.83;;;7.30;;
1164;SDS011;571;50.930;6.926;2023-03-21T11:06:27;12.20;;;6.20;;
1164;SDS011;571;50.930;6.926;2023-03-21T11:08:57;8.50;;;6.80;;
1164;SDS011;571;50.930;6.926;2023-03-21T11:11:35;6.70;;;5.70;;
1164;SDS011;571;50.930;6.926;2023-03-21T11:14:04;6.63;;;5.77;;
1164;SDS011;571;50.930;6.926;2023-03-21T11:16:37;10.93;;;7.50;;
1164;SDS011;571;50.930;6.926;2023-03-21T11:19:12;8.37;;;5.60;;
1164;SDS011;571;50.930;6.926;2023-03-21T11:21:40;6.63;;;5.27;;
1164;SDS011;571;50.930;6.926;2023-03-21T11:24:10;9.03;;;6.00;;
1164;SDS011;571;50.930;6.926;2023-03-21T11:26:39;6.63;;;5.93;;
1164;SDS011;571;50.930;6.926;2023-03-21T11:29:11;8.33;;;5.97;;
1164;SDS011;571;50.930;6.926;2023-03-21T11:31:50;9.73;;;6.10;;
1164;SDS011;571;50.930;6.926;2023-03-21T11:34:23;7.40;;;5.97;;
1164;SDS011;571;50.930;6.926;2023-03-21T11:36:52;13.13;;;6.43;;
1164;SDS011;571;50.930;6.926;2023-03-21T11:44:58;6.77;;;5.47;;
1164;SDS011;571;50.930;6.926;2023-03-21T11:47:28;8.90;;;5.93;;
1164;SDS011;571;50.930;6.926;2023-03-21T11:49:55;7.50;;;5.90;;
1164;SDS011;571;50.930;6.926;2023-03-21T11:52:22;5.97;;;4.93;;
1164;SDS011;571;50.930;6.926;2023-03-21T11:55:00;9.03;;;5.40;;
1164;SDS011;571;50.930;6.926;2023-03-21T11:57:41;8.27;;;5.43;;
1164;SDS011;571;50.930;6.926;2023-03-21T12:00:16;15.43;;;6.30;;
1164;SDS011;571;50.930;6.926;2023-03-21T12:02:56;6.53;;;5.20;;
1164;SDS011;571;50.930;6.926;2023-03-21T12:05:55;6.83;;;4.90;;
1164;SDS011;571;50.930;6.926;2023-03-21T12:08:29;9.23;;;6.13;;
1164;SDS011;571;50.930;6.926;2023-03-21T12:11:07;7.07;;;5.53;;
1164;SDS011;571;50.930;6.926;2023-03-21T12:13:43;11.60;;;5.73;;
1164;SDS011;571;50.930;6.926;2023-03-21T12:16:25;7.83;;;5.37;;
1164;SDS011;571;50.930;6.926;2023-03-21T12:19:03;8.30;;;5.60;;
1164;SDS011;571;50.930;6.926;2023-03-21T12:21:39;6.33;;;5.40;;
1164;SDS011;571;50.930;6.926;2023-03-21T12:24:14;6.07;;;5.47;;
1164;SDS011;571;50.930;6.926;2023-03-21T12:26:46;7.37;;;5.70;;
1164;SDS011;571;50.930;6.926;2023-03-21T12:29:24;10.03;;;5.50;;
1164;SDS011;571;50.930;6.926;2023-03-21T12:32:04;6.57;;;4.73;;
1164;SDS011;571;50.930;6.926;2023-03-21T12:34:51;6.80;;;4.23;;
1164;SDS011;571;50.930;6.926;2023-03-21T12:37:35;15.10;;;4.63;;
1164;SDS011;571;50.930;6.926;2023-03-21T12:40:08;10.13;;;6.53;;
1164;SDS011;571;50.930;6.926;2023-03-21T12:42:53;6.60;;;5.50;;
1164;SDS011;571;50.930;6.926;2023-03-21T12:45:29;7.97;;;5.50;;
1164;SDS011;571;50.930;6.926;2023-03-21T12:48:01;7.60;;;5.40;;
1164;SDS011;571;50.930;6.926;2023-03-21T12:50:41;7.97;;;5.17;;
1164;SDS011;571;50.930;6.926;2023-03-21T12:53:25;8.53;;;5.40;;
1164;SDS011;571;50.930;6.926;2023-03-21T12:56:00;7.17;;;4.97;;
1164;SDS011;571;50.930;6.926;2023-03-21T12:58:30;7.10;;;4.77;;
1164;SDS011;571;50.930;6.926;2023-03-21T13:01:08;6.33;;;4.60;;
1164;SDS011;571;50.930;6.926;2023-03-21T13:03:37;8.83;;;5.43;;
1164;SDS011;571;50.930;6.926;2023-03-21T13:06:09;9.27;;;5.60;;
1164;SDS011;571;50.930;6.926;2023-03-21T13:08:40;4.10;;;3.50;;
1164;SDS011;571;50.930;6.926;2023-03-21T13:11:11;7.40;;;3.60;;
1164;SDS011;571;50.930;6.926;2023-03-21T13:13:41;6.20;;;4.07;;
1164;SDS011;571;50.930;6.926;2023-03-21T13:16:11;9.50;;;4.77;;
1164;SDS011;571;50.930;6.926;2023-03-21T13:18:48;6.30;;;4.80;;
1164;SDS011;571;50.930;6.926;2023-03-21T13:21:26;8.83;;;5.67;;
1164;SDS011;571;50.930;6.926;2023-03-21T13:24:03;6.40;;;4.33;;
1164;SDS011;571;50.930;6.926;2023-03-21T13:26:44;7.17;;;5.03;;
1164;SDS011;571;50.930;6.926;2023-03-21T13:29:21;7.37;;;5.80;;
1164;SDS011;571;50.930;6.926;2023-03-21T13:31:50;6.40;;;4.70;;
1164;SDS011;571;50.930;6.926;2023-03-21T13:34:19;7.00;;;5.43;;
1164;SDS011;571;50.930;6.926;2023-03-21T13:36:49;7.20;;;5.03;;
1164;SDS011;571;50.930;6.926;2023-03-21T13:39:18;5.07;;;4.50;;
1164;SDS011;571;50.930;6.926;2023-03-21T13:41:46;8.80;;;4.70;;
1164;SDS011;571;50.930;6.926;2023-03-21T13:44:21;7.30;;;4.77;;
1164;SDS011;571;50.930;6.926;2023-03-21T13:46:52;6.60;;;5.07;;
1164;SDS011;571;50.930;6.926;2023-03-21T13:49:28;6.10;;;4.80;;
1164;SDS011;571;50.930;6.926;2023-03-21T13:51:59;7.87;;;6.43;;
1164;SDS011;571;50.930;6.926;2023-03-21T13:57:34;5.33;;;4.67;;
1164;SDS011;571;50.930;6.926;2023-03-21T14:00:15;5.43;;;4.60;;
1164;SDS011;571;50.930;6.926;2023-03-21T14:02:54;11.37;;;4.63;;
1164;SDS011;571;50.930;6.926;2023-03-21T14:05:24;7.17;;;5.50;;
1164;SDS011;571;50.930;6.926;2023-03-21T14:07:54;5.60;;;5.07;;
1164;SDS011;571;50.930;6.926;2023-03-21T14:10:25;8.33;;;4.27;;
1164;SDS011;571;50.930;6.926;2023-03-21T14:13:03;6.93;;;4.23;;
1164;SDS011;571;50.930;6.926;2023-03-21T14:15:35;13.10;;;4.00;;
1164;SDS011;571;50.930;6.926;2023-03-21T14:18:04;7.97;;;4.13;;
1164;SDS011;571;50.930;6.926;2023-03-21T14:20:33;5.97;;;4.17;;
1164;SDS011;571;50.930;6.926;2023-03-21T14:23:03;8.80;;;3.70;;
1164;SDS011;571;50.930;6.926;2023-03-21T14:25:32;5.03;;;4.07;;
1164;SDS011;571;50.930;6.926;2023-03-21T14:28:02;8.43;;;4.87;;
1164;SDS011;571;50.930;6.926;2023-03-21T14:30:32;6.33;;;4.70;;
1164;SDS011;571;50.930;6.926;2023-03-21T14:33:02;8.93;;;5.07;;
1164;SDS011;571;50.930;6.926;2023-03-21T14:35:35;10.77;;;5.70;;
1164;SDS011;571;50.930;6.926;2023-03-21T14:38:07;7.17;;;5.40;;
1164;SDS011;571;50.930;6.926;2023-03-21T14:40:45;7.10;;;4.90;;
1164;SDS011;571;50.930;6.926;2023-03-21T14:43:12;5.90;;;4.90;;
1164;SDS011;571;50.930;6.926;2023-03-21T14:45:39;6.80;;;3.73;;
1164;SDS011;571;50.930;6.926;2023-03-21T14:48:07;5.17;;;4.67;;
1164;SDS011;571;50.930;6.926;2023-03-21T14:50:38;5.77;;;4.97;;
1164;SDS011;571;50.930;6.926;2023-03-21T14:55:40;5.33;;;4.50;;
1164;SDS011;571;50.930;6.926;2023-03-21T14:58:10;11.50;;;5.10;;
1164;SDS011;571;50.930;6.926;2023-03-21T15:00:39;8.53;;;4.67;;
1164;SDS011;571;50.930;6.926;2023-03-21T15:03:06;5.80;;;5.20;;
1164;SDS011;571;50.930;6.926;2023-03-21T15:05:33;5.13;;;4.53;;
1164;SDS011;571;50.930;6.926;2023-03-21T15:08:05;5.80;;;4.90;;
1164;SDS011;571;50.930;6.926;2023-03-21T15:10:35;6.87;;;4.50;;
1164;SDS011;571;50.930;6.926;2023-03-21T15:13:11;6.87;;;4.13;;
1164;SDS011;571;50.930;6.926;2023-03-21T15:15:40;6.00;;;4.90;;
1164;SDS011;571;50.930;6.926;2023-03-21T15:18:07;6.27;;;3.83;;
1164;SDS011;571;50.930;6.926;2023-03-21T15:20:40;5.23;;;4.73;;
1164;SDS011;571;50.930;6.926;2023-03-21T15:23:07;7.47;;;4.67;;
1164;SDS011;571;50.930;6.926;2023-03-21T15:25:39;7.47;;;5.63;;
1164;SDS011;571;50.930;6.926;2023-03-21T15:28:06;6.70;;;4.60;;
1164;SDS011;571;50.930;6.926;2023-03-21T15:30:36;4.73;;;4.33;;
1164;SDS011;571;50.930;6.926;2023-03-21T15:33:07;5.07;;;4.43;;
1164;SDS011;571;50.930;6.926;2023-03-21T15:35:36;10.43;;;5.07;;
1164;SDS011;571;50.930;6.926;2023-03-21T15:38:04;4.40;;;3.63;;
1164;SDS011;571;50.930;6.926;2023-03-21T15:40:32;6.43;;;4.80;;
1164;SDS011;571;50.930;6.926;2023-03-21T15:43:11;9.43;;;5.00;;
1164;SDS011;571;50.930;6.926;2023-03-21T15:45:44;5.00;;;4.33;;
1164;SDS011;571;50.930;6.926;2023-03-21T15:48:13;6.17;;;4.40;;
1164;SDS011;571;50.930;6.926;2023-03-21T15:50:40;5.53;;;4.40;;
1164;SDS011;571;50.930;6.926;2023-03-21T15:53:13;4.53;;;4.13;;
1164;SDS011;571;50.930;6.926;2023-03-21T15:55:42;7.30;;;4.53;;
1164;SDS011;571;50.930;6.926;2023-03-21T15:58:14;7.37;;;3.73;;
1164;SDS011;571;50.930;6.926;2023-03-21T16:00:46;4.87;;;4.37;;
1164;SDS011;571;50.930;6.926;2023-03-21T16:03:17;4.50;;;3.90;;
1164;SDS011;571;50.930;6.926;2023-03-21T16:06:01;4.53;;;4.03;;
1164;SDS011;571;50.930;6.926;2023-03-21T16:08:33;7.33;;;3.77;;
1164;SDS011;571;50.930;6.926;2023-03-21T16:11:04;5.97;;;3.83;;
1164;SDS011;571;50.930;6.926;2023-03-21T16:13:34;4.73;;;3.70;;
1164;SDS011;571;50.930;6.926;2023-03-21T16:16:01;2.93;;;2.73;;
1164;SDS011;571;50.930;6.926;2023-03-21T16:18:27;5.63;;;4.07;;
1164;SDS011;571;50.930;6.926;2023-03-21T16:20:56;5.93;;;3.63;;
1164;SDS011;571;50.930;6.926;2023-03-21T16:23:23;6.47;;;4.40;;
1164;SDS011;571;50.930;6.926;2023-03-21T16:25:50;3.83;;;3.53;;
1164;SDS011;571;50.930;6.926;2023-03-21T16:28:21;6.80;;;3.07;;
1164;SDS011;571;50.930;6.926;2023-03-21T16:30:49;5.30;;;3.77;;
1164;SDS011;571;50.930;6.926;2023-03-21T16:33:16;4.97;;;3.30;;
1164;SDS011;571;50.930;6.926;2023-03-21T16:35:43;3.70;;;2.63;;
1164;SDS011;571;50.930;6.926;2023-03-21T16:38:10;3.93;;;3.20;;
1164;SDS011;571;50.930;6.926;2023-03-21T16:40:38;5.43;;;3.43;;
1164;SDS011;571;50.930;6.926;2023-03-21T16:43:06;3.70;;;3.40;;
1164;SDS011;571;50.930;6.926;2023-03-21T16:45:33;4.70;;;3.20;;
1164;SDS011;571;50.930;6.926;2023-03-21T16:48:02;3.73;;;3.33;;
1164;SDS011;571;50.930;6.926;2023-03-21T16:50:31;4.60;;;3.37;;
1164;SDS011;571;50.930;6.926;2023-03-21T16:53:00;5.00;;;4.07;;
1164;SDS011;571;50.930;6.926;2023-03-21T16:55:27;4.67;;;4.00;;
1164;SDS011;571;50.930;6.926;2023-03-21T16:57:56;4.60;;;3.50;;
1164;SDS011;571;50.930;6.926;2023-03-21T17:00:24;7.33;;;3.73;;
1164;SDS011;571;50.930;6.926;2023-03-21T17:02:52;6.60;;;4.63;;
1164;SDS011;571;50.930;6.926;2023-03-21T17:05:21;5.93;;;3.87;;
1164;SDS011;571;50.930;6.926;2023-03-21T17:07:49;4.73;;;3.43;;
1164;SDS011;571;50.930;6.926;2023-03-21T17:10:18;3.47;;;3.00;;
1164;SDS011;571;50.930;6.926;2023-03-21T17:12:46;3.30;;;3.00;;
1164;SDS011;571;50.930;6.926;2023-03-21T17:15:13;4.80;;;3.43;;
1164;SDS011;571;50.930;6.926;2023-03-21T17:17:40;3.30;;;3.00;;
1164;SDS011;571;50.930;6.926;2023-03-21T17:20:11;6.30;;;3.07;;
1164;SDS011;571;50.930;6.926;2023-03-21T17:22:43;5.30;;;3.60;;
1164;SDS011;571;50.930;6.926;2023-03-21T17:25:10;3.40;;;2.90;;
1164;SDS011;571;50.930;6.926;2023-03-21T17:27:37;6.63;;;3.07;;
1164;SDS011;571;50.930;6.926;2023-03-21T17:30:08;4.13;;;3.47;;
1164;SDS011;571;50.930;6.926;2023-03-21T17:32:50;4.97;;;3.63;;
1164;SDS011;571;50.930;6.926;2023-03-21T17:35:17;7.23;;;3.50;;
1164;SDS011;571;50.930;6.926;2023-03-21T17:37:46;4.03;;;3.37;;
1164;SDS011;571;50.930;6.926;2023-03-21T17:40:15;6.20;;;3.17;;
1164;SDS011;571;50.930;6.926;2023-03-21T17:42:44;3.07;;;2.77;;
1164;SDS011;571;50.930;6.926;2023-03-21T17:45:11;3.93;;;3.30;;
1164;SDS011;571;50.930;6.926;2023-03-21T17:47:38;3.60;;;2.60;;
1164;SDS011;571;50.930;6.926;2023-03-21T17:50:06;3.63;;;3.27;;
1164;SDS011;571;50.930;6.926;2023-03-21T17:52:41;5.13;;;2.97;;
1164;SDS011;571;50.930;6.926;2023-03-21T17:55:09;4.07;;;2.97;;
1164;SDS011;571;50.930;6.926;2023-03-21T17:57:36;3.30;;;2.77;;
1164;SDS011;571;50.930;6.926;2023-03-21T18:00:04;5.63;;;2.93;;
1164;SDS011;571;50.930;6.926;2023-03-21T18:02:36;4.17;;;3.00;;
1164;SDS011;571;50.930;6.926;2023-03-21T18:05:03;5.77;;;3.17;;
1164;SDS011;571;50.930;6.926;2023-03-21T18:07:30;2.60;;;2.40;;
1164;SDS011;571;50.930;6.926;2023-03-21T18:09:58;2.60;;;2.40;;
1164;SDS011;571;50.930;6.926;2023-03-21T18:12:26;4.53;;;2.90;;
1164;SDS011;571;50.930;6.926;2023-03-21T18:14:53;4.23;;;2.53;;
1164;SDS011;571;50.930;6.926;2023-03-21T18:17:19;4.03;;;2.67;;
1164;SDS011;571;50.930;6.926;2023-03-21T18:19:46;3.07;;;2.80;;
1164;SDS011;571;50.930;6.926;2023-03-21T18:22:13;2.53;;;2.00;;
1164;SDS011;571;50.930;6.926;2023-03-21T18:24:42;2.07;;;1.87;;
1164;SDS011;571;50.930;6.926;2023-03-21T18:27:08;3.00;;;2.70;;
1164;SDS011;571;50.930;6.926;2023-03-21T18:29:37;2.77;;;2.57;;
1164;SDS011;571;50.930;6.926;2023-03-21T18:32:04;2.97;;;2.40;;
1164;SDS011;571;50.930;6.926;2023-03-21T18:34:31;3.33;;;2.30;;
1164;SDS011;571;50.930;6.926;2023-03-21T18:36:59;4.17;;;2.53;;
1164;SDS011;571;50.930;6.926;2023-03-21T18:39:25;5.30;;;2.60;;
1164;SDS011;571;50.930;6.926;2023-03-21T18:41:52;4.77;;;2.50;;
1164;SDS011;571;50.930;6.926;2023-03-21T18:44:23;2.93;;;2.63;;
1164;SDS011;571;50.930;6.926;2023-03-21T18:46:51;2.77;;;2.53;;
1164;SDS011;571;50.930;6.926;2023-03-21T18:49:18;3.60;;;2.40;;
1164;SDS011;571;50.930;6.926;2023-03-21T18:51:45;2.30;;;2.10;;
1164;SDS011;571;50.930;6.926;2023-03-21T18:54:12;3.50;;;2.67;;
1164;SDS011;571;50.930;6.926;2023-03-21T18:56:38;5.37;;;2.70;;
1164;SDS011;571;50.930;6.926;2023-03-21T18:59:07;4.07;;;3.10;;
1164;SDS011;571;50.930;6.926;2023-03-21T19:01:34;4.70;;;3.03;;
1164;SDS011;571;50.930;6.926;2023-03-21T19:04:02;4.87;;;3.00;;
1164;SDS011;571;50.930;6.926;2023-03-21T19:06:28;2.43;;;2.23;;
1164;SDS011;571;50.930;6.926;2023-03-21T19:08:55;5.70;;;3.00;;
1164;SDS011;571;50.930;6.926;2023-03-21T19:11:22;5.37;;;3.50;;
1164;SDS011;571;50.930;6.926;2023-03-21T19:13:49;4.10;;;2.60;;
1164;SDS011;571;50.930;6.926;2023-03-21T19:16:17;3.10;;;2.70;;
1164;SDS011;571;50.930;6.926;2023-03-21T19:18:44;2.63;;;2.20;;
1164;SDS011;571;50.930;6.926;2023-03-21T19:21:12;6.37;;;2.97;;
1164;SDS011;571;50.930;6.926;2023-03-21T19:23:39;4.37;;;3.23;;
1164;SDS011;571;50.930;6.926;2023-03-21T19:26:06;8.83;;;3.97;;
1164;SDS011;571;50.930;6.926;2023-03-21T19:28:32;3.47;;;3.13;;
1164;SDS011;571;50.930;6.926;2023-03-21T19:31:02;4.03;;;3.10;;
1164;SDS011;571;50.930;6.926;2023-03-21T19:33:29;4.40;;;2.87;;
1164;SDS011;571;50.930;6.926;2023-03-21T19:35:56;4.93;;;3.63;;